createdAt,value
2022-09-24T00:02:50.984Z,8.30
2022-09-24T00:05:53.194Z,8.38
2022-09-24T00:08:55.679Z,8.48
2022-09-24T00:11:57.352Z,8.46
2022-09-24T00:14:59.020Z,8.29
2022-09-24T00:18:02.124Z,8.39
2022-09-24T00:21:11.319Z,8.08
2022-09-24T00:24:14.601Z,7.90
2022-09-24T00:27:16.297Z,8.16
2022-09-24T00:30:17.934Z,8.19
2022-09-24T00:33:20.957Z,8.36
2022-09-24T00:36:23.015Z,8.39
2022-09-24T00:39:25.097Z,8.36
2022-09-24T00:42:26.761Z,8.41
2022-09-24T00:45:29.615Z,8.47
2022-09-24T00:48:33.405Z,8.52
2022-09-24T00:51:35.015Z,8.61
2022-09-24T00:54:36.746Z,8.65
2022-09-24T00:57:38.982Z,8.67
2022-09-24T01:00:41.668Z,8.71
2022-09-24T01:03:45.351Z,8.66
2022-09-24T01:06:47.826Z,8.14
2022-09-24T01:09:49.454Z,7.93
2022-09-24T01:12:55.520Z,7.91
2022-09-24T01:16:00.534Z,8.01
2022-09-24T01:19:08.815Z,8.20
2022-09-24T01:22:15.706Z,8.08
2022-09-24T01:25:24.782Z,8.08
2022-09-24T01:28:32.852Z,8.18
2022-09-24T01:31:38.852Z,8.27
2022-09-24T01:34:43.812Z,8.26
2022-09-24T01:37:47.087Z,8.16
2022-09-24T01:40:50.480Z,8.19
2022-09-24T01:43:52.382Z,8.30
2022-09-24T01:46:55.659Z,8.27
2022-09-24T01:49:57.360Z,8.31
2022-09-24T01:53:01.453Z,7.98
2022-09-24T01:56:06.332Z,7.80
2022-09-24T01:59:11.300Z,7.93
2022-09-24T02:02:18.650Z,7.90
2022-09-24T02:05:24.335Z,7.85
2022-09-24T02:08:29.370Z,8.05
2022-09-24T02:11:32.660Z,8.07
2022-09-24T02:14:37.513Z,8.21
2022-09-24T02:17:42.505Z,8.03
2022-09-24T02:20:44.682Z,8.01
2022-09-24T02:23:49.539Z,8.16
2022-09-24T02:26:51.349Z,8.32
2022-09-24T02:29:52.973Z,8.33
2022-09-24T02:32:56.714Z,8.42
2022-09-24T02:35:58.645Z,8.49
2022-09-24T02:39:00.390Z,8.35
2022-09-24T02:42:02.761Z,8.08
2022-09-24T02:45:04.643Z,8.13
2022-09-24T02:48:07.675Z,7.93
2022-09-24T02:51:09.465Z,7.99
2022-09-24T02:54:11.191Z,7.89
2022-09-24T02:57:12.855Z,8.01
2022-09-24T03:00:14.970Z,8.19
2022-09-24T03:03:17.967Z,8.33
2022-09-24T03:06:19.584Z,8.27
2022-09-24T03:09:21.313Z,8.23
2022-09-24T03:12:22.975Z,8.31
2022-09-24T03:15:24.641Z,8.35
2022-09-24T03:18:27.658Z,8.29
2022-09-24T03:21:29.631Z,8.13
2022-09-24T03:24:31.294Z,8.13
2022-09-24T03:27:32.937Z,8.21
2022-09-24T03:30:34.592Z,8.27
2022-09-24T03:33:38.611Z,8.27
2022-09-24T03:36:40.235Z,7.84
2022-09-24T03:39:41.794Z,7.85
2022-09-24T03:42:43.518Z,8.06
2022-09-24T03:45:45.212Z,8.03
2022-09-24T03:48:48.198Z,8.00
2022-09-24T03:51:49.812Z,8.13
2022-09-24T03:54:51.505Z,8.15
2022-09-24T03:57:53.121Z,8.23
2022-09-24T04:00:55.287Z,8.36
2022-09-24T04:03:58.293Z,8.38
2022-09-24T04:07:00.180Z,8.27
2022-09-24T04:10:01.810Z,8.38
2022-09-24T04:13:03.428Z,8.34
2022-09-24T04:16:05.455Z,8.43
2022-09-24T04:19:08.544Z,8.46
2022-09-24T04:22:10.167Z,8.42
2022-09-24T04:25:14.892Z,8.46
2022-09-24T04:28:16.671Z,8.40
2022-09-24T04:31:18.409Z,8.36
2022-09-24T04:34:21.482Z,8.41
2022-09-24T04:37:23.258Z,8.30
2022-09-24T04:40:24.973Z,8.34
2022-09-24T04:43:26.672Z,8.23
2022-09-24T04:46:28.390Z,8.36
2022-09-24T04:49:31.425Z,8.41
2022-09-24T04:52:33.252Z,8.44
2022-09-24T04:55:34.875Z,8.47
2022-09-24T04:58:36.521Z,8.41
2022-09-24T05:01:38.355Z,8.48
2022-09-24T05:04:41.415Z,8.45
2022-09-24T05:07:43.045Z,8.42
2022-09-24T05:10:44.649Z,8.46
2022-09-24T05:13:46.263Z,8.47
2022-09-24T05:16:47.883Z,8.49
2022-09-24T05:19:50.953Z,8.50
2022-09-24T05:22:52.723Z,8.46
2022-09-24T05:25:54.349Z,8.45
2022-09-24T05:28:55.994Z,8.47
2022-09-24T05:31:57.589Z,8.34
2022-09-24T05:35:00.719Z,8.26
2022-09-24T05:38:02.375Z,8.30
2022-09-24T05:41:03.979Z,8.32
2022-09-24T05:44:05.797Z,8.31
2022-09-24T05:47:07.411Z,8.33
2022-09-24T05:50:10.505Z,8.24
2022-09-24T05:53:12.150Z,8.22
2022-09-24T05:56:13.791Z,8.08
2022-09-24T05:59:15.522Z,8.19
2022-09-24T06:02:17.248Z,8.26
2022-09-24T06:05:20.441Z,8.30
2022-09-24T06:08:22.799Z,8.39
2022-09-24T06:11:24.404Z,8.48
2022-09-24T06:14:26.103Z,8.44
2022-09-24T06:17:27.837Z,8.44
2022-09-24T06:20:30.879Z,8.38
2022-09-24T06:23:32.543Z,8.37
2022-09-24T06:26:34.246Z,8.45
2022-09-24T06:29:35.932Z,8.49
2022-09-24T06:32:37.579Z,8.56
2022-09-24T06:35:41.685Z,8.66
2022-09-24T06:38:43.315Z,8.67
2022-09-24T06:41:44.939Z,8.76
2022-09-24T06:44:46.622Z,8.80
2022-09-24T06:47:52.134Z,8.88
2022-09-24T06:50:55.235Z,8.91
2022-09-24T06:53:56.852Z,8.94
2022-09-24T06:56:58.496Z,8.95
2022-09-24T07:00:00.216Z,8.98
2022-09-24T07:03:02.034Z,9.03
2022-09-24T07:06:06.088Z,9.09
2022-09-24T07:09:07.844Z,9.16
2022-09-24T07:12:09.747Z,9.21
2022-09-24T07:15:11.574Z,9.28
2022-09-24T07:18:13.457Z,9.31
2022-09-24T07:21:16.458Z,9.40
2022-09-24T07:24:18.163Z,9.46
2022-09-24T07:27:19.786Z,9.61
2022-09-24T07:30:21.423Z,9.61
2022-09-24T07:33:23.101Z,9.62
2022-09-24T07:36:26.107Z,9.71
2022-09-24T07:39:27.737Z,9.81
2022-09-24T07:42:29.385Z,9.86
2022-09-24T07:45:31.091Z,9.89
2022-09-24T07:48:32.711Z,9.99
2022-09-24T07:51:35.685Z,10.01
2022-09-24T07:54:37.391Z,10.03
2022-09-24T07:57:39.018Z,10.04
2022-09-24T08:00:41.193Z,10.07
2022-09-24T08:03:42.949Z,10.29
2022-09-24T08:06:47.631Z,10.32
2022-09-24T08:09:49.448Z,10.38
2022-09-24T08:12:51.060Z,10.45
2022-09-24T08:15:55.932Z,10.49
2022-09-24T08:18:57.593Z,10.52
2022-09-24T08:22:00.562Z,10.53
2022-09-24T08:25:02.244Z,10.62
2022-09-24T08:28:04.267Z,10.74
2022-09-24T08:31:07.164Z,10.80
2022-09-24T08:34:08.855Z,10.73
2022-09-24T08:37:11.886Z,10.80
2022-09-24T08:40:17.013Z,10.94
2022-09-24T08:43:24.616Z,10.99
2022-09-24T08:46:28.942Z,11.05
2022-09-24T08:49:32.211Z,11.10
2022-09-24T08:52:40.951Z,11.09
2022-09-24T08:55:44.070Z,11.17
2022-09-24T08:58:48.833Z,10.98
2022-09-24T09:01:53.965Z,11.10
2022-09-24T09:05:00.303Z,11.16
2022-09-24T09:08:27.269Z,11.31
2022-09-24T09:11:32.554Z,11.36
2022-09-24T09:14:41.972Z,11.42
2022-09-24T09:17:46.776Z,11.46
2022-09-24T09:20:49.539Z,11.53
2022-09-24T09:23:54.485Z,11.61
2022-09-24T09:26:56.780Z,11.76
2022-09-24T09:29:59.221Z,11.76
2022-09-24T09:33:08.850Z,11.75
2022-09-24T09:36:19.791Z,11.85
2022-09-24T09:39:29.955Z,11.94
2022-09-24T09:42:32.439Z,12.13
2022-09-24T09:45:38.592Z,12.16
2022-09-24T09:48:43.620Z,12.20
2022-09-24T09:51:47.305Z,12.19
2022-09-24T09:54:50.461Z,12.21
2022-09-24T09:57:52.405Z,12.29
2022-09-24T10:01:02.865Z,12.25
2022-09-24T10:04:04.914Z,12.30
2022-09-24T10:07:08.986Z,12.36
2022-09-24T10:10:17.818Z,12.33
2022-09-24T10:13:19.458Z,12.47
2022-09-24T10:16:21.282Z,12.50
2022-09-24T10:19:24.336Z,12.47
2022-09-24T10:22:27.499Z,12.54
2022-09-24T10:25:31.918Z,12.60
2022-09-24T10:28:34.507Z,12.63
2022-09-24T10:31:37.798Z,12.66
2022-09-24T10:34:39.576Z,12.64
2022-09-24T10:37:49.989Z,12.63
2022-09-24T10:40:53.070Z,12.66
2022-09-24T10:43:55.922Z,12.73
2022-09-24T10:47:03.024Z,12.80
2022-09-24T10:50:15.859Z,12.81
2022-09-24T10:53:23.558Z,12.89
2022-09-24T10:56:31.901Z,12.90
2022-09-24T10:59:41.396Z,12.96
2022-09-24T11:02:58.038Z,13.01
2022-09-24T11:06:03.860Z,13.06
2022-09-24T11:09:14.314Z,13.13
2022-09-24T11:12:23.511Z,13.21
2022-09-24T11:15:31.930Z,13.27
2022-09-24T11:18:37.982Z,13.35
2022-09-24T11:21:53.552Z,13.39
2022-09-24T11:25:05.766Z,13.39
2022-09-24T11:28:18.693Z,13.41
2022-09-24T11:31:26.037Z,13.45
2022-09-24T11:34:36.024Z,13.58
2022-09-24T11:37:46.108Z,13.60
2022-09-24T11:40:56.272Z,13.63
2022-09-24T11:44:13.837Z,13.66
2022-09-24T11:47:22.692Z,13.71
2022-09-24T11:50:30.183Z,13.92
2022-09-24T11:53:34.634Z,13.90
2022-09-24T11:56:39.352Z,13.90
2022-09-24T11:59:47.361Z,13.94
2022-09-24T12:02:51.019Z,14.05
2022-09-24T12:05:54.687Z,14.07
2022-09-24T12:08:59.224Z,14.11
2022-09-24T12:12:04.245Z,14.18
2022-09-24T12:15:13.893Z,14.25
2022-09-24T12:18:18.616Z,14.26
2022-09-24T12:21:23.997Z,14.34
2022-09-24T12:24:28.817Z,14.37
2022-09-24T12:27:35.169Z,14.48
2022-09-24T12:30:41.411Z,14.49
2022-09-24T12:33:45.622Z,14.55
2022-09-24T12:36:57.048Z,14.64
2022-09-24T12:40:03.875Z,14.70
2022-09-24T12:43:09.774Z,14.69
2022-09-24T12:46:16.988Z,14.75
2022-09-24T12:49:25.722Z,14.77
2022-09-24T12:52:28.453Z,14.79
2022-09-24T12:55:31.738Z,14.83
2022-09-24T12:58:37.178Z,14.90
2022-09-24T13:01:40.301Z,14.91
2022-09-24T13:04:44.240Z,14.93
2022-09-24T13:07:55.678Z,15.01
2022-09-24T13:10:57.901Z,15.20
2022-09-24T13:14:00.956Z,15.24
2022-09-24T13:17:06.870Z,15.24
2022-09-24T13:20:17.173Z,15.26
2022-09-24T13:23:30.352Z,15.31
2022-09-24T13:26:32.984Z,15.29
2022-09-24T13:29:37.890Z,15.35
2022-09-24T13:32:43.498Z,15.37
2022-09-24T13:35:47.954Z,15.32
2022-09-24T13:38:53.530Z,15.39
2022-09-24T13:42:00.122Z,15.24
2022-09-24T13:45:05.116Z,15.28
2022-09-24T13:48:18.635Z,15.20
2022-09-24T13:51:23.579Z,15.14
2022-09-24T13:54:29.206Z,14.90
2022-09-24T13:57:30.843Z,14.90
2022-09-24T14:00:37.360Z,14.85
2022-09-24T14:03:41.168Z,14.89
2022-09-24T14:06:44.880Z,15.00
2022-09-24T14:09:46.599Z,15.08
2022-09-24T14:12:58.561Z,14.92
2022-09-24T14:16:00.971Z,14.99
2022-09-24T14:19:05.193Z,14.84
2022-09-24T14:22:12.008Z,14.71
2022-09-24T14:25:16.127Z,14.70
2022-09-24T14:28:18.932Z,14.57
2022-09-24T14:31:20.722Z,14.59
2022-09-24T14:34:27.218Z,14.49
2022-09-24T14:37:31.217Z,14.51
2022-09-24T14:40:40.431Z,14.51
2022-09-24T14:43:44.077Z,14.50
2022-09-24T14:46:47.584Z,14.42
2022-09-24T14:49:50.746Z,14.47
2022-09-24T14:52:54.469Z,14.38
2022-09-24T14:55:56.556Z,14.33
2022-09-24T14:58:58.634Z,14.32
2022-09-24T15:02:15.560Z,14.14
2022-09-24T15:05:23.073Z,14.16
2022-09-24T15:08:26.919Z,14.17
2022-09-24T15:11:29.626Z,14.18
2022-09-24T15:14:32.006Z,14.10
2022-09-24T15:17:34.251Z,14.24
2022-09-24T15:20:37.610Z,14.23
2022-09-24T15:23:39.325Z,14.20
2022-09-24T15:26:42.373Z,13.99
2022-09-24T15:29:44.035Z,13.91
2022-09-24T15:32:45.842Z,13.77
2022-09-24T15:35:48.995Z,13.66
2022-09-24T15:38:51.130Z,13.64
2022-09-24T15:41:52.829Z,13.61
2022-09-24T15:44:54.442Z,13.59
2022-09-24T15:47:56.093Z,13.53
2022-09-24T15:51:03.687Z,13.42
2022-09-24T15:54:09.020Z,13.40
2022-09-24T15:57:12.080Z,13.36
2022-09-24T16:00:15.335Z,13.34
2022-09-24T16:03:18.941Z,13.36
2022-09-24T16:06:22.083Z,13.30
2022-09-24T16:09:23.717Z,13.32
2022-09-24T16:12:25.363Z,13.36
2022-09-24T16:15:27.311Z,13.33
2022-09-24T16:18:28.956Z,13.30
2022-09-24T16:21:31.987Z,13.33
2022-09-24T16:24:34.123Z,13.33
2022-09-24T16:27:36.393Z,13.29
2022-09-24T16:30:38.734Z,13.24
2022-09-24T16:33:40.616Z,13.23
2022-09-24T16:36:43.612Z,13.18
2022-09-24T16:39:45.328Z,13.16
2022-09-24T16:42:46.924Z,13.15
2022-09-24T16:45:48.550Z,13.11
2022-09-24T16:48:50.145Z,13.14
2022-09-24T16:51:53.316Z,13.02
2022-09-24T16:54:54.951Z,13.15
2022-09-24T16:57:56.558Z,13.15
2022-09-24T17:00:58.182Z,13.13
2022-09-24T17:03:59.767Z,13.21
2022-09-24T17:07:02.806Z,13.20
2022-09-24T17:10:04.791Z,13.28
2022-09-24T17:13:06.422Z,13.29
2022-09-24T17:16:08.094Z,13.35
2022-09-24T17:19:10.303Z,13.38
2022-09-24T17:22:13.426Z,13.46
2022-09-24T17:25:15.170Z,13.54
2022-09-24T17:28:16.796Z,13.58
2022-09-24T17:31:19.904Z,13.50
2022-09-24T17:34:21.534Z,13.36
2022-09-24T17:37:24.624Z,13.30
2022-09-24T17:40:26.345Z,13.04
2022-09-24T17:43:29.263Z,12.84
2022-09-24T17:46:31.711Z,12.70
2022-09-24T17:49:33.529Z,12.65
2022-09-24T17:52:36.593Z,12.68
2022-09-24T17:55:38.213Z,12.65
2022-09-24T17:58:41.287Z,12.55
2022-09-24T18:01:44.215Z,12.49
2022-09-24T18:04:46.072Z,12.44
2022-09-24T18:07:49.091Z,12.50
2022-09-24T18:10:59.849Z,12.63
2022-09-24T18:14:01.782Z,12.57
2022-09-24T18:17:03.467Z,12.55
2022-09-24T18:20:05.634Z,12.59
2022-09-24T18:23:08.626Z,12.55
2022-09-24T18:26:11.185Z,12.55
2022-09-24T18:29:13.390Z,12.52
2022-09-24T18:32:15.101Z,12.42
2022-09-24T18:35:16.811Z,12.43
2022-09-24T18:38:19.794Z,12.38
2022-09-24T18:41:22.256Z,12.34
2022-09-24T18:44:23.935Z,12.38
2022-09-24T18:47:25.569Z,12.37
2022-09-24T18:50:27.280Z,12.35
2022-09-24T18:53:30.341Z,12.30
2022-09-24T18:56:32.393Z,12.26
2022-09-24T18:59:34.636Z,12.21
2022-09-24T19:02:36.441Z,12.22
2022-09-24T19:05:38.166Z,12.21
2022-09-24T19:08:41.174Z,12.20
2022-09-24T19:11:43.353Z,12.21
2022-09-24T19:14:46.359Z,12.19
2022-09-24T19:17:47.988Z,12.23
2022-09-24T19:20:49.614Z,12.21
2022-09-24T19:23:53.603Z,12.22
2022-09-24T19:26:55.240Z,12.30
2022-09-24T19:29:56.919Z,12.35
2022-09-24T19:32:58.644Z,12.39
2022-09-24T19:36:01.386Z,12.42
2022-09-24T19:39:04.405Z,12.43
2022-09-24T19:42:06.057Z,12.40
2022-09-24T19:45:08.198Z,12.52
2022-09-24T19:48:09.814Z,12.51
2022-09-24T19:51:12.489Z,12.53
2022-09-24T19:54:15.599Z,12.60
2022-09-24T19:57:17.546Z,12.68
2022-09-24T20:00:19.389Z,12.78
2022-09-24T20:03:21.049Z,12.66
2022-09-24T20:06:23.943Z,12.44
2022-09-24T20:09:27.139Z,12.46
2022-09-24T20:12:28.838Z,12.58
2022-09-24T20:15:30.589Z,12.59
2022-09-24T20:18:32.295Z,12.42
2022-09-24T20:21:34.777Z,12.30
2022-09-24T20:24:38.106Z,12.31
2022-09-24T20:27:39.821Z,12.40
2022-09-24T20:30:41.547Z,12.42
2022-09-24T20:33:43.201Z,12.40
2022-09-24T20:36:44.906Z,12.38
2022-09-24T20:39:47.970Z,12.20
2022-09-24T20:42:49.572Z,12.12
2022-09-24T20:45:51.276Z,12.29
2022-09-24T20:48:53.353Z,12.36
2022-09-24T20:51:57.405Z,12.40
2022-09-24T20:55:00.749Z,12.44
2022-09-24T20:58:02.479Z,12.56
2022-09-24T21:01:04.471Z,12.65
2022-09-24T21:04:06.302Z,12.65
2022-09-24T21:07:08.002Z,12.68
2022-09-24T21:10:12.055Z,12.73
2022-09-24T21:13:13.698Z,12.77
2022-09-24T21:16:15.900Z,12.78
2022-09-24T21:19:17.613Z,12.75
2022-09-24T21:22:19.361Z,12.75
2022-09-24T21:25:52.314Z,12.75
2022-09-24T21:28:44.452Z,12.79
2022-09-24T21:31:46.896Z,12.81
2022-09-24T21:34:48.611Z,12.84
2022-09-24T21:37:50.311Z,12.89
2022-09-24T21:40:53.865Z,12.81
2022-09-24T21:43:55.650Z,12.80
2022-09-24T21:46:57.333Z,12.84
2022-09-24T21:49:58.946Z,12.81
2022-09-24T21:53:00.609Z,12.80
2022-09-24T21:56:03.907Z,12.82
2022-09-24T21:59:05.805Z,12.81
2022-09-24T22:02:07.536Z,12.82
2022-09-24T22:05:09.386Z,12.81
2022-09-24T22:08:11.319Z,12.81
2022-09-24T22:11:14.705Z,12.77
2022-09-24T22:14:16.361Z,12.75
2022-09-24T22:17:18.074Z,12.76
2022-09-24T22:20:19.775Z,12.74
2022-09-24T22:23:21.493Z,12.75
2022-09-24T22:26:24.578Z,12.74
2022-09-24T22:29:26.278Z,12.73
2022-09-24T22:32:27.869Z,12.73
2022-09-24T22:35:29.510Z,12.75
2022-09-24T22:38:31.246Z,12.74
2022-09-24T22:41:35.024Z,12.71
2022-09-24T22:44:36.657Z,12.75
2022-09-24T22:47:38.370Z,12.73
2022-09-24T22:50:40.008Z,12.71
2022-09-24T22:53:41.885Z,12.75
2022-09-24T22:56:44.952Z,12.72
2022-09-24T22:59:46.628Z,12.67
2022-09-24T23:02:51.328Z,12.68
2022-09-24T23:05:52.914Z,12.69
2022-09-24T23:08:55.253Z,12.69
2022-09-24T23:11:58.290Z,12.70
2022-09-24T23:14:59.945Z,12.69
2022-09-24T23:18:01.598Z,12.64
2022-09-24T23:21:04.264Z,12.69
2022-09-24T23:24:07.190Z,12.69
2022-09-24T23:27:10.275Z,12.70
2022-09-24T23:30:12.215Z,12.69
2022-09-24T23:33:13.872Z,12.69
2022-09-24T23:36:15.584Z,12.68
2022-09-24T23:39:17.223Z,12.63
2022-09-24T23:42:20.319Z,12.63
2022-09-24T23:45:21.901Z,12.65
2022-09-24T23:48:23.641Z,12.66
2022-09-24T23:51:25.662Z,12.59
2022-09-24T23:54:27.260Z,12.61
2022-09-24T23:57:30.301Z,12.62
